sensor_id;sensor_type;location;lat;lon;timestamp;P1;durP1;ratioP1;P2;durP2;ratioP2
46561;SDS011;32289;42.688;23.330;2024-01-30T00:00:39;4.97;;;2.63;;
46561;SDS011;32289;42.688;23.330;2024-01-30T00:04:23;10.75;;;2.60;;
46561;SDS011;32289;42.688;23.330;2024-01-30T00:08:03;9.90;;;2.90;;
46561;SDS011;32289;42.688;23.330;2024-01-30T00:11:44;9.50;;;2.70;;
46561;SDS011;32289;42.688;23.330;2024-01-30T00:15:28;7.68;;;2.53;;
46561;SDS011;32289;42.688;23.330;2024-01-30T00:19:08;4.53;;;1.95;;
46561;SDS011;32289;42.688;23.330;2024-01-30T00:22:49;6.20;;;2.42;;
46561;SDS011;32289;42.688;23.330;2024-01-30T00:26:30;7.32;;;2.60;;
46561;SDS011;32289;42.688;23.330;2024-01-30T00:30:11;5.18;;;2.63;;
46561;SDS011;32289;42.688;23.330;2024-01-30T00:33:52;5.70;;;2.58;;
46561;SDS011;32289;42.688;23.330;2024-01-30T00:37:32;4.13;;;2.30;;
46561;SDS011;32289;42.688;23.330;2024-01-30T00:41:13;6.25;;;2.38;;
46561;SDS011;32289;42.688;23.330;2024-01-30T00:44:54;6.55;;;2.50;;
46561;SDS011;32289;42.688;23.330;2024-01-30T00:48:35;4.95;;;2.13;;
46561;SDS011;32289;42.688;23.330;2024-01-30T00:52:16;6.25;;;2.28;;
46561;SDS011;32289;42.688;23.330;2024-01-30T00:55:56;5.95;;;2.47;;
46561;SDS011;32289;42.688;23.330;2024-01-30T00:59:37;5.65;;;2.72;;
46561;SDS011;32289;42.688;23.330;2024-01-30T01:03:17;4.47;;;2.15;;
46561;SDS011;32289;42.688;23.330;2024-01-30T01:06:58;4.93;;;2.35;;
46561;SDS011;32289;42.688;23.330;2024-01-30T01:10:39;5.82;;;1.95;;
46561;SDS011;32289;42.688;23.330;2024-01-30T01:14:19;3.45;;;1.60;;
46561;SDS011;32289;42.688;23.330;2024-01-30T01:18:00;4.10;;;1.95;;
46561;SDS011;32289;42.688;23.330;2024-01-30T01:21:41;6.93;;;2.78;;
46561;SDS011;32289;42.688;23.330;2024-01-30T01:25:21;7.55;;;3.00;;
46561;SDS011;32289;42.688;23.330;2024-01-30T01:29:02;5.28;;;2.33;;
46561;SDS011;32289;42.688;23.330;2024-01-30T01:32:49;7.30;;;3.22;;
46561;SDS011;32289;42.688;23.330;2024-01-30T01:36:34;6.47;;;2.90;;
46561;SDS011;32289;42.688;23.330;2024-01-30T01:40:15;9.45;;;3.20;;
46561;SDS011;32289;42.688;23.330;2024-01-30T01:43:56;4.53;;;1.98;;
46561;SDS011;32289;42.688;23.330;2024-01-30T01:47:37;9.25;;;2.95;;
46561;SDS011;32289;42.688;23.330;2024-01-30T01:51:18;4.30;;;2.30;;
46561;SDS011;32289;42.688;23.330;2024-01-30T01:54:59;6.75;;;2.65;;
46561;SDS011;32289;42.688;23.330;2024-01-30T01:58:40;4.72;;;2.75;;
46561;SDS011;32289;42.688;23.330;2024-01-30T02:02:21;6.05;;;1.77;;
46561;SDS011;32289;42.688;23.330;2024-01-30T02:06:04;4.53;;;1.95;;
46561;SDS011;32289;42.688;23.330;2024-01-30T02:09:44;4.15;;;2.15;;
46561;SDS011;32289;42.688;23.330;2024-01-30T02:13:25;5.72;;;2.53;;
46561;SDS011;32289;42.688;23.330;2024-01-30T02:17:06;6.03;;;2.83;;
46561;SDS011;32289;42.688;23.330;2024-01-30T02:20:46;5.53;;;2.67;;
46561;SDS011;32289;42.688;23.330;2024-01-30T02:24:27;9.98;;;2.63;;
46561;SDS011;32289;42.688;23.330;2024-01-30T02:28:12;6.28;;;2.53;;
46561;SDS011;32289;42.688;23.330;2024-01-30T02:31:53;6.38;;;2.47;;
46561;SDS011;32289;42.688;23.330;2024-01-30T02:35:34;6.13;;;2.00;;
46561;SDS011;32289;42.688;23.330;2024-01-30T02:39:15;4.95;;;2.78;;
46561;SDS011;32289;42.688;23.330;2024-01-30T02:42:56;6.57;;;2.25;;
46561;SDS011;32289;42.688;23.330;2024-01-30T02:46:37;6.28;;;2.55;;
46561;SDS011;32289;42.688;23.330;2024-01-30T02:50:18;5.00;;;2.08;;
46561;SDS011;32289;42.688;23.330;2024-01-30T02:53:59;8.48;;;2.40;;
46561;SDS011;32289;42.688;23.330;2024-01-30T02:57:40;4.18;;;1.92;;
46561;SDS011;32289;42.688;23.330;2024-01-30T03:01:20;5.18;;;1.83;;
46561;SDS011;32289;42.688;23.330;2024-01-30T03:05:01;5.70;;;2.85;;
46561;SDS011;32289;42.688;23.330;2024-01-30T03:08:43;3.95;;;2.05;;
46561;SDS011;32289;42.688;23.330;2024-01-30T03:12:24;2.95;;;1.35;;
46561;SDS011;32289;42.688;23.330;2024-01-30T03:16:05;8.52;;;2.35;;
46561;SDS011;32289;42.688;23.330;2024-01-30T03:19:46;4.60;;;1.90;;
46561;SDS011;32289;42.688;23.330;2024-01-30T03:23:27;5.88;;;2.05;;
46561;SDS011;32289;42.688;23.330;2024-01-30T03:27:08;5.13;;;2.10;;
46561;SDS011;32289;42.688;23.330;2024-01-30T03:30:48;4.25;;;1.88;;
46561;SDS011;32289;42.688;23.330;2024-01-30T03:34:29;2.85;;;1.35;;
46561;SDS011;32289;42.688;23.330;2024-01-30T03:38:10;4.03;;;2.15;;
46561;SDS011;32289;42.688;23.330;2024-01-30T03:41:50;5.72;;;1.70;;
46561;SDS011;32289;42.688;23.330;2024-01-30T03:45:31;3.95;;;1.90;;
46561;SDS011;32289;42.688;23.330;2024-01-30T03:49:12;5.00;;;1.90;;
46561;SDS011;32289;42.688;23.330;2024-01-30T03:52:52;3.85;;;1.60;;
46561;SDS011;32289;42.688;23.330;2024-01-30T03:56:33;4.82;;;1.65;;
46561;SDS011;32289;42.688;23.330;2024-01-30T04:00:14;3.83;;;1.70;;
46561;SDS011;32289;42.688;23.330;2024-01-30T04:03:55;4.28;;;1.58;;
46561;SDS011;32289;42.688;23.330;2024-01-30T04:07:35;4.32;;;1.77;;
46561;SDS011;32289;42.688;23.330;2024-01-30T04:11:18;4.15;;;1.52;;
46561;SDS011;32289;42.688;23.330;2024-01-30T04:14:59;6.68;;;1.98;;
46561;SDS011;32289;42.688;23.330;2024-01-30T04:18:40;7.43;;;2.70;;
46561;SDS011;32289;42.688;23.330;2024-01-30T04:22:21;6.72;;;2.80;;
46561;SDS011;32289;42.688;23.330;2024-01-30T04:26:01;4.38;;;2.40;;
46561;SDS011;32289;42.688;23.330;2024-01-30T04:29:43;3.90;;;1.83;;
46561;SDS011;32289;42.688;23.330;2024-01-30T04:33:23;7.43;;;2.22;;
46561;SDS011;32289;42.688;23.330;2024-01-30T04:37:04;5.80;;;2.20;;
46561;SDS011;32289;42.688;23.330;2024-01-30T04:40:45;4.15;;;1.83;;
46561;SDS011;32289;42.688;23.330;2024-01-30T04:44:25;4.05;;;2.00;;
46561;SDS011;32289;42.688;23.330;2024-01-30T04:48:06;5.72;;;1.67;;
46561;SDS011;32289;42.688;23.330;2024-01-30T04:51:47;4.72;;;1.98;;
46561;SDS011;32289;42.688;23.330;2024-01-30T04:55:28;3.83;;;2.40;;
46561;SDS011;32289;42.688;23.330;2024-01-30T04:59:08;7.63;;;2.22;;
46561;SDS011;32289;42.688;23.330;2024-01-30T05:02:49;5.10;;;2.65;;
46561;SDS011;32289;42.688;23.330;2024-01-30T05:06:30;6.13;;;2.33;;
46561;SDS011;32289;42.688;23.330;2024-01-30T05:10:10;4.68;;;2.20;;
46561;SDS011;32289;42.688;23.330;2024-01-30T05:13:51;8.25;;;2.83;;
46561;SDS011;32289;42.688;23.330;2024-01-30T05:17:32;6.22;;;2.42;;
46561;SDS011;32289;42.688;23.330;2024-01-30T05:21:13;8.60;;;2.92;;
46561;SDS011;32289;42.688;23.330;2024-01-30T05:24:54;6.63;;;2.60;;
46561;SDS011;32289;42.688;23.330;2024-01-30T05:28:35;7.53;;;2.72;;
46561;SDS011;32289;42.688;23.330;2024-01-30T05:32:16;9.40;;;2.22;;
46561;SDS011;32289;42.688;23.330;2024-01-30T05:35:57;7.28;;;2.35;;
46561;SDS011;32289;42.688;23.330;2024-01-30T05:39:37;11.07;;;2.67;;
46561;SDS011;32289;42.688;23.330;2024-01-30T05:43:18;6.72;;;3.05;;
46561;SDS011;32289;42.688;23.330;2024-01-30T05:46:59;5.93;;;2.45;;
46561;SDS011;32289;42.688;23.330;2024-01-30T05:50:39;4.78;;;2.42;;
46561;SDS011;32289;42.688;23.330;2024-01-30T05:54:20;6.75;;;2.28;;
46561;SDS011;32289;42.688;23.330;2024-01-30T05:58:01;6.78;;;2.28;;
46561;SDS011;32289;42.688;23.330;2024-01-30T06:01:45;3.83;;;1.58;;
46561;SDS011;32289;42.688;23.330;2024-01-30T06:05:28;13.80;;;3.08;;
46561;SDS011;32289;42.688;23.330;2024-01-30T06:09:09;17.45;;;3.05;;
46561;SDS011;32289;42.688;23.330;2024-01-30T06:12:50;6.38;;;2.25;;
46561;SDS011;32289;42.688;23.330;2024-01-30T06:16:30;16.08;;;3.13;;
46561;SDS011;32289;42.688;23.330;2024-01-30T06:20:11;6.72;;;2.97;;
46561;SDS011;32289;42.688;23.330;2024-01-30T06:23:52;7.85;;;3.22;;
46561;SDS011;32289;42.688;23.330;2024-01-30T06:27:32;6.30;;;3.13;;
46561;SDS011;32289;42.688;23.330;2024-01-30T06:31:13;15.50;;;3.80;;
46561;SDS011;32289;42.688;23.330;2024-01-30T06:34:54;6.47;;;2.42;;
46561;SDS011;32289;42.688;23.330;2024-01-30T06:38:34;4.00;;;2.28;;
46561;SDS011;32289;42.688;23.330;2024-01-30T06:42:15;7.55;;;3.60;;
46561;SDS011;32289;42.688;23.330;2024-01-30T06:45:56;9.52;;;2.78;;
46561;SDS011;32289;42.688;23.330;2024-01-30T06:49:36;5.28;;;2.33;;
46561;SDS011;32289;42.688;23.330;2024-01-30T06:53:18;4.78;;;2.15;;
46561;SDS011;32289;42.688;23.330;2024-01-30T06:56:59;4.68;;;2.22;;
46561;SDS011;32289;42.688;23.330;2024-01-30T07:00:40;5.65;;;2.40;;
46561;SDS011;32289;42.688;23.330;2024-01-30T07:04:20;7.13;;;2.03;;
46561;SDS011;32289;42.688;23.330;2024-01-30T07:08:01;5.45;;;2.35;;
46561;SDS011;32289;42.688;23.330;2024-01-30T07:11:42;8.48;;;3.22;;
46561;SDS011;32289;42.688;23.330;2024-01-30T07:15:22;5.53;;;2.58;;
46561;SDS011;32289;42.688;23.330;2024-01-30T07:19:03;6.32;;;2.05;;
46561;SDS011;32289;42.688;23.330;2024-01-30T07:22:44;5.07;;;1.85;;
46561;SDS011;32289;42.688;23.330;2024-01-30T07:26:24;5.93;;;2.90;;
46561;SDS011;32289;42.688;23.330;2024-01-30T07:30:05;9.93;;;1.98;;
46561;SDS011;32289;42.688;23.330;2024-01-30T07:33:46;4.10;;;1.65;;
46561;SDS011;32289;42.688;23.330;2024-01-30T07:37:27;6.05;;;2.00;;
46561;SDS011;32289;42.688;23.330;2024-01-30T07:41:08;4.45;;;2.03;;
46561;SDS011;32289;42.688;23.330;2024-01-30T07:44:49;3.50;;;1.52;;
46561;SDS011;32289;42.688;23.330;2024-01-30T07:48:30;8.45;;;1.58;;
46561;SDS011;32289;42.688;23.330;2024-01-30T07:52:11;5.30;;;2.13;;
46561;SDS011;32289;42.688;23.330;2024-01-30T07:55:52;3.88;;;1.40;;
46561;SDS011;32289;42.688;23.330;2024-01-30T07:59:32;6.95;;;1.95;;
46561;SDS011;32289;42.688;23.330;2024-01-30T08:03:13;4.47;;;1.88;;
46561;SDS011;32289;42.688;23.330;2024-01-30T08:06:56;6.28;;;2.47;;
46561;SDS011;32289;42.688;23.330;2024-01-30T08:10:37;2.80;;;1.40;;
46561;SDS011;32289;42.688;23.330;2024-01-30T08:14:18;3.65;;;1.70;;
46561;SDS011;32289;42.688;23.330;2024-01-30T08:17:58;3.28;;;1.55;;
46561;SDS011;32289;42.688;23.330;2024-01-30T08:21:39;6.97;;;2.53;;
46561;SDS011;32289;42.688;23.330;2024-01-30T08:25:20;5.78;;;1.92;;
46561;SDS011;32289;42.688;23.330;2024-01-30T08:29:01;5.30;;;2.35;;
46561;SDS011;32289;42.688;23.330;2024-01-30T08:32:42;5.22;;;1.85;;
46561;SDS011;32289;42.688;23.330;2024-01-30T08:36:23;7.30;;;2.90;;
46561;SDS011;32289;42.688;23.330;2024-01-30T08:40:03;5.85;;;2.20;;
46561;SDS011;32289;42.688;23.330;2024-01-30T08:43:44;4.70;;;2.25;;
46561;SDS011;32289;42.688;23.330;2024-01-30T08:47:25;7.18;;;3.08;;
46561;SDS011;32289;42.688;23.330;2024-01-30T08:51:06;6.07;;;2.95;;
46561;SDS011;32289;42.688;23.330;2024-01-30T08:54:48;6.68;;;2.83;;
46561;SDS011;32289;42.688;23.330;2024-01-30T08:58:29;5.57;;;3.08;;
46561;SDS011;32289;42.688;23.330;2024-01-30T09:02:10;6.75;;;2.53;;
46561;SDS011;32289;42.688;23.330;2024-01-30T09:05:53;4.18;;;2.38;;
46561;SDS011;32289;42.688;23.330;2024-01-30T09:09:33;6.88;;;2.20;;
46561;SDS011;32289;42.688;23.330;2024-01-30T09:13:14;7.50;;;3.20;;
46561;SDS011;32289;42.688;23.330;2024-01-30T09:16:54;5.72;;;2.92;;
46561;SDS011;32289;42.688;23.330;2024-01-30T09:20:35;4.82;;;2.40;;
46561;SDS011;32289;42.688;23.330;2024-01-30T09:24:16;4.22;;;2.10;;
46561;SDS011;32289;42.688;23.330;2024-01-30T09:27:57;9.18;;;2.80;;
46561;SDS011;32289;42.688;23.330;2024-01-30T09:31:37;5.25;;;2.50;;
46561;SDS011;32289;42.688;23.330;2024-01-30T09:35:18;5.65;;;2.38;;
46561;SDS011;32289;42.688;23.330;2024-01-30T09:38:59;5.95;;;2.20;;
46561;SDS011;32289;42.688;23.330;2024-01-30T09:42:40;5.65;;;2.42;;
46561;SDS011;32289;42.688;23.330;2024-01-30T09:46:25;5.60;;;2.55;;
46561;SDS011;32289;42.688;23.330;2024-01-30T09:50:10;5.38;;;2.50;;
46561;SDS011;32289;42.688;23.330;2024-01-30T09:53:55;4.72;;;2.28;;
46561;SDS011;32289;42.688;23.330;2024-01-30T09:57:36;4.45;;;2.17;;
46561;SDS011;32289;42.688;23.330;2024-01-30T10:01:17;7.07;;;2.45;;
46561;SDS011;32289;42.688;23.330;2024-01-30T10:04:59;5.07;;;2.15;;
46561;SDS011;32289;42.688;23.330;2024-01-30T10:08:41;7.07;;;2.03;;
46561;SDS011;32289;42.688;23.330;2024-01-30T10:12:22;4.60;;;2.17;;
46561;SDS011;32289;42.688;23.330;2024-01-30T10:16:06;3.63;;;1.90;;
46561;SDS011;32289;42.688;23.330;2024-01-30T10:19:46;5.28;;;2.33;;
46561;SDS011;32289;42.688;23.330;2024-01-30T10:23:28;4.30;;;2.25;;
46561;SDS011;32289;42.688;23.330;2024-01-30T10:27:09;3.72;;;2.15;;
46561;SDS011;32289;42.688;23.330;2024-01-30T10:30:57;3.88;;;1.70;;
46561;SDS011;32289;42.688;23.330;2024-01-30T10:34:39;4.22;;;2.00;;
46561;SDS011;32289;42.688;23.330;2024-01-30T10:38:20;4.50;;;1.90;;
46561;SDS011;32289;42.688;23.330;2024-01-30T10:42:04;3.60;;;2.00;;
46561;SDS011;32289;42.688;23.330;2024-01-30T10:45:45;3.38;;;1.83;;
46561;SDS011;32289;42.688;23.330;2024-01-30T10:49:29;5.03;;;2.00;;
46561;SDS011;32289;42.688;23.330;2024-01-30T10:53:10;4.18;;;2.22;;
46561;SDS011;32289;42.688;23.330;2024-01-30T10:56:53;3.85;;;1.95;;
46561;SDS011;32289;42.688;23.330;2024-01-30T11:00:34;3.17;;;1.73;;
46561;SDS011;32289;42.688;23.330;2024-01-30T11:04:14;3.70;;;1.80;;
46561;SDS011;32289;42.688;23.330;2024-01-30T11:07:55;2.70;;;1.50;;
46561;SDS011;32289;42.688;23.330;2024-01-30T11:11:51;4.43;;;2.53;;
46561;SDS011;32289;42.688;23.330;2024-01-30T11:15:40;4.88;;;1.95;;
46561;SDS011;32289;42.688;23.330;2024-01-30T11:19:24;2.80;;;1.55;;
46561;SDS011;32289;42.688;23.330;2024-01-30T11:23:05;3.58;;;1.95;;
46561;SDS011;32289;42.688;23.330;2024-01-30T11:26:48;3.88;;;1.67;;
46561;SDS011;32289;42.688;23.330;2024-01-30T11:30:31;3.75;;;1.60;;
46561;SDS011;32289;42.688;23.330;2024-01-30T11:34:14;5.85;;;1.85;;
46561;SDS011;32289;42.688;23.330;2024-01-30T11:37:54;4.13;;;2.17;;
46561;SDS011;32289;42.688;23.330;2024-01-30T11:41:38;3.80;;;1.83;;
46561;SDS011;32289;42.688;23.330;2024-01-30T11:45:21;3.67;;;1.75;;
46561;SDS011;32289;42.688;23.330;2024-01-30T11:49:01;4.57;;;2.10;;
46561;SDS011;32289;42.688;23.330;2024-01-30T11:52:42;4.13;;;1.75;;
46561;SDS011;32289;42.688;23.330;2024-01-30T11:56:26;4.55;;;2.03;;
46561;SDS011;32289;42.688;23.330;2024-01-30T12:00:13;3.42;;;1.92;;
46561;SDS011;32289;42.688;23.330;2024-01-30T12:03:55;3.83;;;1.83;;
46561;SDS011;32289;42.688;23.330;2024-01-30T12:07:37;4.35;;;2.00;;
46561;SDS011;32289;42.688;23.330;2024-01-30T12:11:17;3.97;;;1.63;;
46561;SDS011;32289;42.688;23.330;2024-01-30T12:14:58;4.55;;;2.05;;
46561;SDS011;32289;42.688;23.330;2024-01-30T12:18:39;4.57;;;2.30;;
46561;SDS011;32289;42.688;23.330;2024-01-30T12:22:19;4.75;;;1.92;;
46561;SDS011;32289;42.688;23.330;2024-01-30T12:26:01;5.15;;;2.20;;
46561;SDS011;32289;42.688;23.330;2024-01-30T12:29:43;6.85;;;2.88;;
46561;SDS011;32289;42.688;23.330;2024-01-30T12:33:26;4.90;;;2.50;;
46561;SDS011;32289;42.688;23.330;2024-01-30T12:37:08;4.30;;;2.22;;
46561;SDS011;32289;42.688;23.330;2024-01-30T12:40:50;3.65;;;1.80;;
46561;SDS011;32289;42.688;23.330;2024-01-30T12:44:36;5.72;;;2.50;;
46561;SDS011;32289;42.688;23.330;2024-01-30T12:48:17;4.88;;;2.53;;
46561;SDS011;32289;42.688;23.330;2024-01-30T12:51:58;4.05;;;1.95;;
46561;SDS011;32289;42.688;23.330;2024-01-30T12:55:39;8.30;;;4.03;;
46561;SDS011;32289;42.688;23.330;2024-01-30T12:59:19;8.00;;;2.67;;
46561;SDS011;32289;42.688;23.330;2024-01-30T13:03:00;4.03;;;1.98;;
46561;SDS011;32289;42.688;23.330;2024-01-30T13:06:41;3.92;;;2.22;;
46561;SDS011;32289;42.688;23.330;2024-01-30T13:10:22;5.95;;;2.63;;
46561;SDS011;32289;42.688;23.330;2024-01-30T13:14:03;5.82;;;2.10;;
46561;SDS011;32289;42.688;23.330;2024-01-30T13:17:44;4.90;;;2.35;;
46561;SDS011;32289;42.688;23.330;2024-01-30T13:21:27;6.20;;;2.58;;
46561;SDS011;32289;42.688;23.330;2024-01-30T13:25:08;4.50;;;2.25;;
46561;SDS011;32289;42.688;23.330;2024-01-30T13:28:49;3.83;;;2.28;;
46561;SDS011;32289;42.688;23.330;2024-01-30T13:32:29;4.93;;;2.38;;
46561;SDS011;32289;42.688;23.330;2024-01-30T13:36:10;4.95;;;2.10;;
46561;SDS011;32289;42.688;23.330;2024-01-30T13:39:51;7.15;;;2.85;;
46561;SDS011;32289;42.688;23.330;2024-01-30T13:43:32;4.80;;;2.50;;
46561;SDS011;32289;42.688;23.330;2024-01-30T13:47:13;5.55;;;2.50;;
46561;SDS011;32289;42.688;23.330;2024-01-30T13:50:54;6.40;;;2.53;;
46561;SDS011;32289;42.688;23.330;2024-01-30T13:54:35;6.50;;;2.88;;
46561;SDS011;32289;42.688;23.330;2024-01-30T13:58:16;8.25;;;2.78;;
46561;SDS011;32289;42.688;23.330;2024-01-30T14:01:56;3.85;;;2.25;;
46561;SDS011;32289;42.688;23.330;2024-01-30T14:05:37;5.10;;;2.33;;
46561;SDS011;32289;42.688;23.330;2024-01-30T14:09:18;5.88;;;2.30;;
46561;SDS011;32289;42.688;23.330;2024-01-30T14:12:58;4.82;;;2.47;;
46561;SDS011;32289;42.688;23.330;2024-01-30T14:16:39;5.45;;;2.72;;
46561;SDS011;32289;42.688;23.330;2024-01-30T14:20:20;5.38;;;2.10;;
46561;SDS011;32289;42.688;23.330;2024-01-30T14:24:01;6.85;;;2.58;;
46561;SDS011;32289;42.688;23.330;2024-01-30T14:27:42;7.00;;;2.78;;
46561;SDS011;32289;42.688;23.330;2024-01-30T14:31:22;7.00;;;2.35;;
46561;SDS011;32289;42.688;23.330;2024-01-30T14:35:04;6.65;;;2.55;;
46561;SDS011;32289;42.688;23.330;2024-01-30T14:38:45;5.93;;;2.60;;
46561;SDS011;32289;42.688;23.330;2024-01-30T14:42:26;5.97;;;2.10;;
46561;SDS011;32289;42.688;23.330;2024-01-30T14:46:08;7.05;;;2.60;;
46561;SDS011;32289;42.688;23.330;2024-01-30T14:49:49;5.70;;;2.70;;
46561;SDS011;32289;42.688;23.330;2024-01-30T14:53:29;4.53;;;2.05;;
46561;SDS011;32289;42.688;23.330;2024-01-30T14:57:10;6.60;;;2.55;;
46561;SDS011;32289;42.688;23.330;2024-01-30T15:00:51;8.55;;;3.28;;
46561;SDS011;32289;42.688;23.330;2024-01-30T15:04:32;3.65;;;2.17;;
46561;SDS011;32289;42.688;23.330;2024-01-30T15:08:12;5.10;;;2.15;;
46561;SDS011;32289;42.688;23.330;2024-01-30T15:11:53;6.22;;;2.42;;
46561;SDS011;32289;42.688;23.330;2024-01-30T15:15:34;8.93;;;2.13;;
46561;SDS011;32289;42.688;23.330;2024-01-30T15:19:14;5.28;;;2.55;;
46561;SDS011;32289;42.688;23.330;2024-01-30T15:22:55;10.13;;;3.83;;
46561;SDS011;32289;42.688;23.330;2024-01-30T15:26:36;7.20;;;2.88;;
46561;SDS011;32289;42.688;23.330;2024-01-30T15:30:17;5.22;;;2.97;;
46561;SDS011;32289;42.688;23.330;2024-01-30T15:33:59;7.07;;;2.47;;
46561;SDS011;32289;42.688;23.330;2024-01-30T15:37:40;9.93;;;2.53;;
46561;SDS011;32289;42.688;23.330;2024-01-30T15:41:20;6.60;;;2.78;;
46561;SDS011;32289;42.688;23.330;2024-01-30T15:45:01;9.38;;;3.15;;
46561;SDS011;32289;42.688;23.330;2024-01-30T15:48:42;10.82;;;3.83;;
46561;SDS011;32289;42.688;23.330;2024-01-30T15:52:22;8.27;;;2.88;;
46561;SDS011;32289;42.688;23.330;2024-01-30T15:56:03;8.82;;;3.75;;
46561;SDS011;32289;42.688;23.330;2024-01-30T15:59:44;6.53;;;3.35;;
46561;SDS011;32289;42.688;23.330;2024-01-30T16:03:25;11.35;;;3.63;;
46561;SDS011;32289;42.688;23.330;2024-01-30T16:07:06;12.38;;;5.65;;
46561;SDS011;32289;42.688;23.330;2024-01-30T16:10:46;15.68;;;5.22;;
46561;SDS011;32289;42.688;23.330;2024-01-30T16:14:27;9.88;;;4.60;;
46561;SDS011;32289;42.688;23.330;2024-01-30T16:18:08;13.95;;;4.90;;
46561;SDS011;32289;42.688;23.330;2024-01-30T16:21:48;15.40;;;3.88;;
46561;SDS011;32289;42.688;23.330;2024-01-30T16:25:29;9.07;;;3.63;;
46561;SDS011;32289;42.688;23.330;2024-01-30T16:29:10;7.10;;;3.17;;
46561;SDS011;32289;42.688;23.330;2024-01-30T16:32:51;8.60;;;3.28;;
46561;SDS011;32289;42.688;23.330;2024-01-30T16:36:32;11.10;;;4.43;;
46561;SDS011;32289;42.688;23.330;2024-01-30T16:40:12;10.40;;;4.68;;
46561;SDS011;32289;42.688;23.330;2024-01-30T16:43:54;9.68;;;5.05;;
46561;SDS011;32289;42.688;23.330;2024-01-30T16:47:36;10.75;;;4.45;;
46561;SDS011;32289;42.688;23.330;2024-01-30T16:51:17;5.45;;;3.00;;
46561;SDS011;32289;42.688;23.330;2024-01-30T16:54:58;10.88;;;3.65;;
46561;SDS011;32289;42.688;23.330;2024-01-30T16:58:38;7.70;;;4.15;;
46561;SDS011;32289;42.688;23.330;2024-01-30T17:02:19;12.65;;;4.55;;
46561;SDS011;32289;42.688;23.330;2024-01-30T17:06:00;9.82;;;3.60;;
46561;SDS011;32289;42.688;23.330;2024-01-30T17:09:45;7.78;;;3.92;;
46561;SDS011;32289;42.688;23.330;2024-01-30T17:13:25;7.10;;;3.38;;
46561;SDS011;32289;42.688;23.330;2024-01-30T17:17:06;9.40;;;4.45;;
46561;SDS011;32289;42.688;23.330;2024-01-30T17:20:49;8.43;;;3.67;;
46561;SDS011;32289;42.688;23.330;2024-01-30T17:24:30;10.63;;;3.60;;
46561;SDS011;32289;42.688;23.330;2024-01-30T17:28:10;9.55;;;4.75;;
46561;SDS011;32289;42.688;23.330;2024-01-30T17:31:53;10.18;;;4.25;;
46561;SDS011;32289;42.688;23.330;2024-01-30T17:35:34;10.93;;;4.22;;
46561;SDS011;32289;42.688;23.330;2024-01-30T17:39:15;11.00;;;4.00;;
46561;SDS011;32289;42.688;23.330;2024-01-30T17:42:56;10.88;;;3.30;;
46561;SDS011;32289;42.688;23.330;2024-01-30T17:46:37;13.18;;;4.15;;
46561;SDS011;32289;42.688;23.330;2024-01-30T17:50:17;9.43;;;3.60;;
46561;SDS011;32289;42.688;23.330;2024-01-30T17:53:58;13.43;;;4.07;;
46561;SDS011;32289;42.688;23.330;2024-01-30T17:57:39;8.50;;;3.40;;
46561;SDS011;32289;42.688;23.330;2024-01-30T18:01:19;16.42;;;4.38;;
46561;SDS011;32289;42.688;23.330;2024-01-30T18:05:01;58.53;;;19.83;;
46561;SDS011;32289;42.688;23.330;2024-01-30T18:08:43;22.98;;;8.40;;
46561;SDS011;32289;42.688;23.330;2024-01-30T18:12:24;10.95;;;4.43;;
46561;SDS011;32289;42.688;23.330;2024-01-30T18:16:06;13.65;;;4.57;;
46561;SDS011;32289;42.688;23.330;2024-01-30T18:19:47;16.67;;;6.15;;
46561;SDS011;32289;42.688;23.330;2024-01-30T18:23:28;19.50;;;6.55;;
46561;SDS011;32289;42.688;23.330;2024-01-30T18:27:08;14.50;;;5.50;;
46561;SDS011;32289;42.688;23.330;2024-01-30T18:30:49;11.23;;;4.95;;
46561;SDS011;32289;42.688;23.330;2024-01-30T18:34:29;13.23;;;5.78;;
46561;SDS011;32289;42.688;23.330;2024-01-30T18:38:10;15.18;;;5.90;;
46561;SDS011;32289;42.688;23.330;2024-01-30T18:41:51;12.02;;;5.70;;
46561;SDS011;32289;42.688;23.330;2024-01-30T18:45:32;17.38;;;6.60;;
46561;SDS011;32289;42.688;23.330;2024-01-30T18:49:12;12.75;;;4.32;;
46561;SDS011;32289;42.688;23.330;2024-01-30T18:52:53;17.58;;;4.95;;
46561;SDS011;32289;42.688;23.330;2024-01-30T18:56:34;13.00;;;6.07;;
46561;SDS011;32289;42.688;23.330;2024-01-30T19:00:15;16.73;;;6.03;;
46561;SDS011;32289;42.688;23.330;2024-01-30T19:03:55;11.60;;;5.32;;
46561;SDS011;32289;42.688;23.330;2024-01-30T19:07:36;12.80;;;5.00;;
46561;SDS011;32289;42.688;23.330;2024-01-30T19:11:17;12.43;;;5.70;;
46561;SDS011;32289;42.688;23.330;2024-01-30T19:14:59;12.65;;;6.03;;
46561;SDS011;32289;42.688;23.330;2024-01-30T19:18:39;8.90;;;5.10;;
46561;SDS011;32289;42.688;23.330;2024-01-30T19:22:20;11.50;;;4.53;;
46561;SDS011;32289;42.688;23.330;2024-01-30T19:26:01;9.70;;;4.10;;
46561;SDS011;32289;42.688;23.330;2024-01-30T19:29:44;8.32;;;3.95;;
46561;SDS011;32289;42.688;23.330;2024-01-30T19:33:25;11.00;;;5.05;;
46561;SDS011;32289;42.688;23.330;2024-01-30T19:37:06;6.28;;;2.72;;
46561;SDS011;32289;42.688;23.330;2024-01-30T19:40:47;8.75;;;3.80;;
46561;SDS011;32289;42.688;23.330;2024-01-30T19:44:27;10.77;;;4.50;;
46561;SDS011;32289;42.688;23.330;2024-01-30T19:48:08;8.32;;;3.80;;
46561;SDS011;32289;42.688;23.330;2024-01-30T19:51:49;10.95;;;4.18;;
46561;SDS011;32289;42.688;23.330;2024-01-30T19:55:30;10.65;;;4.65;;
46561;SDS011;32289;42.688;23.330;2024-01-30T19:59:11;11.60;;;4.90;;
46561;SDS011;32289;42.688;23.330;2024-01-30T20:02:52;8.15;;;3.90;;
46561;SDS011;32289;42.688;23.330;2024-01-30T20:06:32;10.30;;;4.07;;
46561;SDS011;32289;42.688;23.330;2024-01-30T20:10:13;18.45;;;5.38;;
46561;SDS011;32289;42.688;23.330;2024-01-30T20:13:54;16.08;;;6.43;;
46561;SDS011;32289;42.688;23.330;2024-01-30T20:17:35;12.57;;;4.50;;
46561;SDS011;32289;42.688;23.330;2024-01-30T20:21:15;18.77;;;6.60;;
46561;SDS011;32289;42.688;23.330;2024-01-30T20:24:56;10.38;;;5.63;;
46561;SDS011;32289;42.688;23.330;2024-01-30T20:28:37;19.30;;;6.15;;
46561;SDS011;32289;42.688;23.330;2024-01-30T20:32:18;11.20;;;4.72;;
46561;SDS011;32289;42.688;23.330;2024-01-30T20:35:59;14.30;;;5.25;;
46561;SDS011;32289;42.688;23.330;2024-01-30T20:39:41;11.93;;;5.20;;
46561;SDS011;32289;42.688;23.330;2024-01-30T20:43:21;12.95;;;5.35;;
46561;SDS011;32289;42.688;23.330;2024-01-30T20:47:02;14.27;;;5.80;;
46561;SDS011;32289;42.688;23.330;2024-01-30T20:50:43;10.68;;;4.53;;
46561;SDS011;32289;42.688;23.330;2024-01-30T20:54:24;18.98;;;6.70;;
46561;SDS011;32289;42.688;23.330;2024-01-30T20:58:05;16.83;;;5.35;;
46561;SDS011;32289;42.688;23.330;2024-01-30T21:01:45;14.73;;;4.85;;
46561;SDS011;32289;42.688;23.330;2024-01-30T21:05:26;15.90;;;5.47;;
46561;SDS011;32289;42.688;23.330;2024-01-30T21:09:07;13.05;;;5.22;;
46561;SDS011;32289;42.688;23.330;2024-01-30T21:12:48;10.25;;;4.18;;
46561;SDS011;32289;42.688;23.330;2024-01-30T21:16:29;13.68;;;5.20;;
46561;SDS011;32289;42.688;23.330;2024-01-30T21:20:10;18.75;;;5.45;;
46561;SDS011;32289;42.688;23.330;2024-01-30T21:23:51;21.98;;;7.72;;
46561;SDS011;32289;42.688;23.330;2024-01-30T21:27:32;11.15;;;5.85;;
46561;SDS011;32289;42.688;23.330;2024-01-30T21:31:13;12.35;;;5.78;;
46561;SDS011;32289;42.688;23.330;2024-01-30T21:34:55;15.15;;;6.00;;
46561;SDS011;32289;42.688;23.330;2024-01-30T21:38:37;11.35;;;5.97;;
46561;SDS011;32289;42.688;23.330;2024-01-30T21:42:18;16.70;;;6.70;;
46561;SDS011;32289;42.688;23.330;2024-01-30T21:45:59;20.13;;;7.88;;